createdAt,value
2023-01-13T00:05:35.907Z,-1.47
2023-01-13T00:11:37.844Z,-1.46
2023-01-13T00:17:39.842Z,-1.09
2023-01-13T00:23:43.268Z,-1.25
2023-01-13T00:29:45.733Z,-1.41
2023-01-13T00:36:00.229Z,-1.14
2023-01-13T00:42:20.763Z,-1.22
2023-01-13T00:48:25.245Z,-1.21
2023-01-13T00:54:27.694Z,-1.45
2023-01-13T01:00:34.222Z,-1.04
2023-01-13T01:06:36.131Z,-1.23
2023-01-13T01:12:37.856Z,-1.33
2023-01-13T01:18:42.022Z,-1.60
2023-01-13T01:24:43.688Z,-1.37
2023-01-13T01:30:46.453Z,-1.99
2023-01-13T01:36:48.926Z,-1.36
2023-01-13T01:43:09.094Z,-1.37
2023-01-13T01:49:23.992Z,-1.17
2023-01-13T01:55:34.484Z,-1.26
2023-01-13T02:01:39.091Z,-1.73
2023-01-13T02:07:44.422Z,-1.23
2023-01-13T02:13:46.958Z,-0.64
2023-01-13T02:20:27.574Z,-0.47
2023-01-13T02:26:55.135Z,-0.88
2023-01-13T02:33:00.619Z,-0.91
2023-01-13T02:39:20.153Z,-1.05
2023-01-13T02:45:30.653Z,-0.98
2023-01-13T02:51:34.104Z,-0.95
2023-01-13T02:57:38.588Z,-0.98
2023-01-13T03:03:41.057Z,-1.25
2023-01-13T03:09:58.578Z,-1.22
2023-01-13T03:16:16.126Z,-1.06
2023-01-13T03:22:41.665Z,-1.16
2023-01-13T03:28:50.141Z,-0.91
2023-01-13T03:35:24.225Z,-0.88
2023-01-13T03:41:58.347Z,-1.00
2023-01-13T03:48:04.835Z,-1.64
2023-01-13T03:54:11.305Z,-0.96
2023-01-13T04:00:14.779Z,-0.92
2023-01-13T04:06:23.264Z,-0.95
2023-01-13T04:12:52.819Z,-1.00
2023-01-13T04:18:55.272Z,-1.02
2023-01-13T04:24:57.737Z,-1.00
2023-01-13T04:31:00.249Z,-1.50
2023-01-13T04:37:02.713Z,-0.98
2023-01-13T04:43:06.196Z,-0.93
2023-01-13T04:49:08.643Z,-1.44
2023-01-13T04:55:10.874Z,-0.95
2023-01-13T05:01:13.680Z,-0.72
2023-01-13T05:07:17.069Z,-0.94
2023-01-13T05:13:37.614Z,-0.72
2023-01-13T05:19:41.064Z,-0.72
2023-01-13T05:25:44.769Z,-0.66
2023-01-13T05:31:46.978Z,-0.63
2023-01-13T05:37:49.426Z,-0.73
2023-01-13T05:43:52.104Z,-0.79
2023-01-13T05:49:54.363Z,-0.67
2023-01-13T05:55:56.807Z,-0.62
2023-01-13T06:01:58.534Z,-1.04
2023-01-13T06:08:02.738Z,-0.60
2023-01-13T06:14:05.189Z,-0.48
2023-01-13T06:20:09.665Z,-0.38
2023-01-13T06:26:24.160Z,-0.67
2023-01-13T06:32:34.675Z,-0.51
2023-01-13T06:38:40.131Z,-0.48
2023-01-13T06:44:42.172Z,-1.30
2023-01-13T06:50:44.195Z,-0.54
2023-01-13T06:56:46.528Z,-0.65
2023-01-13T07:02:49.026Z,-0.40
2023-01-13T07:08:51.442Z,-0.42
2023-01-13T07:15:13.989Z,-0.42
2023-01-13T07:21:20.463Z,-0.48
2023-01-13T07:27:24.917Z,-0.49
2023-01-13T07:33:29.379Z,-0.90
2023-01-13T07:39:31.850Z,-0.83
2023-01-13T07:45:33.941Z,-1.15
2023-01-13T07:51:40.812Z,-0.32
2023-01-13T07:57:46.296Z,-0.47
2023-01-13T08:03:48.735Z,-0.92
2023-01-13T08:09:50.671Z,-0.25
2023-01-13T08:15:58.936Z,-0.30
2023-01-13T08:22:02.164Z,-0.15
2023-01-13T08:28:05.624Z,-0.17
2023-01-13T08:34:08.075Z,-0.11
2023-01-13T08:40:11.146Z,-0.38
2023-01-13T08:46:18.092Z,-0.26
2023-01-13T08:52:23.932Z,-0.39
2023-01-13T08:58:26.990Z,-1.19
2023-01-13T09:04:29.731Z,-0.06
2023-01-13T09:10:32.908Z,0.03
2023-01-13T09:16:35.403Z,-0.67
2023-01-13T09:22:39.846Z,0.20
2023-01-13T09:28:42.328Z,0.28
2023-01-13T09:35:02.875Z,0.18
2023-01-13T09:41:25.387Z,0.12
2023-01-13T09:48:00.024Z,-0.46
2023-01-13T09:54:34.648Z,0.31
2023-01-13T10:00:48.137Z,0.28
2023-01-13T10:06:56.621Z,0.36
2023-01-13T10:13:18.503Z,0.43
2023-01-13T10:19:33.652Z,0.06
2023-01-13T10:25:57.233Z,0.47
2023-01-13T10:32:01.668Z,0.33
2023-01-13T10:38:04.147Z,0.33
2023-01-13T10:44:18.644Z,0.26
2023-01-13T10:50:31.164Z,0.47
2023-01-13T10:56:34.616Z,0.48
2023-01-13T11:02:39.135Z,0.52
2023-01-13T11:08:43.555Z,0.45
2023-01-13T11:14:47.846Z,0.50
2023-01-13T11:20:55.490Z,0.40
2023-01-13T11:27:02.235Z,0.43
2023-01-13T11:33:10.472Z,0.32
2023-01-13T11:39:26.984Z,0.48
2023-01-13T11:45:52.552Z,0.46
2023-01-13T11:52:00.989Z,0.46
2023-01-13T11:58:28.897Z,0.27
2023-01-13T12:04:50.098Z,0.22
2023-01-13T12:11:16.667Z,0.51
2023-01-13T12:17:32.180Z,0.60
2023-01-13T12:23:49.720Z,0.54
2023-01-13T12:29:58.154Z,0.61
2023-01-13T12:36:08.652Z,0.64
2023-01-13T12:42:47.282Z,0.69
2023-01-13T12:48:55.739Z,0.65
2023-01-13T12:54:58.170Z,0.75
2023-01-13T13:01:36.887Z,0.82
2023-01-13T13:07:47.290Z,0.94
2023-01-13T13:13:49.748Z,0.89
2023-01-13T13:19:55.150Z,0.65
2023-01-13T13:26:06.726Z,0.78
2023-01-13T13:32:24.249Z,0.80
2023-01-13T13:39:12.933Z,0.35
2023-01-13T13:45:44.642Z,0.67
2023-01-13T13:52:09.120Z,0.99
2023-01-13T13:58:18.489Z,1.01
2023-01-13T14:04:28.233Z,0.95
2023-01-13T14:10:36.544Z,0.83
2023-01-13T14:16:40.941Z,0.89
2023-01-13T14:22:52.410Z,1.24
2023-01-13T14:28:55.896Z,1.14
2023-01-13T14:34:58.392Z,0.39
2023-01-13T14:41:12.608Z,0.92
2023-01-13T14:47:26.414Z,0.89
2023-01-13T14:53:39.894Z,0.89
2023-01-13T14:59:49.397Z,0.85
2023-01-13T15:05:53.886Z,0.93
2023-01-13T15:11:59.295Z,0.96
2023-01-13T15:18:14.795Z,1.09
2023-01-13T15:24:17.246Z,1.02
2023-01-13T15:30:27.795Z,0.70
2023-01-13T15:36:32.220Z,0.77
2023-01-13T15:42:52.778Z,0.78
2023-01-13T15:48:55.214Z,0.79
2023-01-13T15:54:57.673Z,0.80
2023-01-13T16:01:00.244Z,0.97
2023-01-13T16:07:02.338Z,0.73
2023-01-13T16:13:05.057Z,0.73
2023-01-13T16:19:07.525Z,0.81
2023-01-13T16:25:17.952Z,0.91
2023-01-13T16:31:19.808Z,0.92
2023-01-13T16:37:24.191Z,0.86
2023-01-13T16:43:29.460Z,1.00
2023-01-13T16:49:31.990Z,0.98
2023-01-13T16:55:34.054Z,0.95
2023-01-13T17:01:39.969Z,0.89
2023-01-13T17:07:44.367Z,1.01
2023-01-13T17:13:49.852Z,1.01
2023-01-13T17:19:53.288Z,-0.07
2023-01-13T17:25:55.738Z,0.87
2023-01-13T17:31:58.280Z,0.57
2023-01-13T17:38:01.676Z,0.99
2023-01-13T17:44:04.134Z,0.51
2023-01-13T17:50:07.639Z,0.84
2023-01-13T17:56:11.035Z,1.02
2023-01-13T18:02:13.136Z,1.07
2023-01-13T18:08:15.098Z,0.99
2023-01-13T18:14:23.446Z,1.01
2023-01-13T18:20:44.001Z,1.09
2023-01-13T18:27:06.319Z,0.98
2023-01-13T18:33:09.023Z,0.94
2023-01-13T18:39:11.462Z,0.84
2023-01-13T18:45:13.948Z,0.99
2023-01-13T18:51:16.372Z,0.94
2023-01-13T18:57:19.886Z,0.79
2023-01-13T19:03:30.020Z,0.85
2023-01-13T19:09:33.882Z,0.93
2023-01-13T19:15:40.362Z,0.93
2023-01-13T19:21:43.798Z,1.09
2023-01-13T19:27:47.268Z,0.94
2023-01-13T19:33:49.702Z,1.09
2023-01-13T19:39:52.176Z,0.99
2023-01-13T19:45:57.702Z,0.79
2023-01-13T19:52:00.133Z,1.08
2023-01-13T19:58:03.605Z,1.02
2023-01-13T20:04:08.064Z,0.06
2023-01-13T20:10:11.521Z,1.05
2023-01-13T20:16:13.990Z,0.97
2023-01-13T20:22:18.120Z,0.96
2023-01-13T20:28:20.893Z,0.97
2023-01-13T20:34:24.359Z,0.92
2023-01-13T20:40:28.878Z,1.03
2023-01-13T20:46:31.327Z,0.89
2023-01-13T20:52:33.818Z,0.68
2023-01-13T20:58:39.280Z,0.76
2023-01-13T21:04:42.775Z,0.76
2023-01-13T21:10:46.246Z,0.58
2023-01-13T21:16:51.781Z,0.31
2023-01-13T21:22:54.204Z,0.72
2023-01-13T21:29:00.654Z,0.86
2023-01-13T21:35:03.149Z,0.49
2023-01-13T21:41:12.653Z,0.49
2023-01-13T21:47:40.215Z,0.50
2023-01-13T21:53:42.667Z,0.73
2023-01-13T21:59:45.152Z,0.69
2023-01-13T22:05:55.632Z,0.85
2023-01-13T22:11:58.089Z,0.91
2023-01-13T22:18:01.578Z,0.67
2023-01-13T22:24:05.026Z,0.30
2023-01-13T22:30:16.510Z,0.65
2023-01-13T22:36:18.742Z,0.57
2023-01-13T22:42:21.468Z,0.61
2023-01-13T22:48:23.906Z,0.03
2023-01-13T22:54:26.379Z,0.63
2023-01-13T23:00:28.868Z,0.57
2023-01-13T23:06:33.314Z,0.63
2023-01-13T23:12:35.089Z,0.21
2023-01-13T23:18:36.974Z,0.70
2023-01-13T23:24:41.475Z,0.05
2023-01-13T23:30:43.311Z,0.16
2023-01-13T23:36:46.636Z,0.65
2023-01-13T23:42:49.101Z,0.20
2023-01-13T23:48:52.601Z,0.38
2023-01-13T23:54:55.079Z,-0.01
